createdAt,value
2022-11-28T00:01:43.394Z,88.00
2022-11-28T00:04:14.545Z,49.95
2022-11-28T00:06:46.117Z,48.63
2022-11-28T00:09:16.006Z,48.80
2022-11-28T00:11:46.423Z,58.08
2022-11-28T00:14:15.485Z,60.15
2022-11-28T00:16:44.497Z,50.90
2022-11-28T00:19:14.556Z,43.33
2022-11-28T00:21:43.068Z,44.78
2022-11-28T00:24:11.154Z,45.47
2022-11-28T00:26:42.490Z,43.85
2022-11-28T00:29:11.567Z,47.28
2022-11-28T00:31:43.969Z,44.05
2022-11-28T00:34:15.739Z,45.28
2022-11-28T00:36:45.769Z,38.92
2022-11-28T00:39:14.545Z,40.58
2022-11-28T00:41:43.085Z,46.28
2022-11-28T00:44:11.530Z,45.33
2022-11-28T00:46:39.568Z,45.17
2022-11-28T00:49:08.522Z,42.97
2022-11-28T00:51:38.271Z,45.10
2022-11-28T00:54:07.580Z,49.55
2022-11-28T00:56:38.135Z,49.10
2022-11-28T00:59:07.310Z,40.63
2022-11-28T01:01:40.007Z,44.20
2022-11-28T01:04:10.314Z,43.80
2022-11-28T01:06:42.433Z,40.83
2022-11-28T01:09:13.266Z,42.03
2022-11-28T01:11:43.233Z,39.38
2022-11-28T01:14:13.792Z,50.90
2022-11-28T01:16:42.158Z,44.95
2022-11-28T01:19:10.501Z,49.40
2022-11-28T01:21:40.105Z,45.38
2022-11-28T01:24:08.553Z,39.60
2022-11-28T01:26:38.624Z,45.78
2022-11-28T01:29:06.740Z,45.67
2022-11-28T01:31:34.884Z,43.90
2022-11-28T01:34:03.013Z,41.15
2022-11-28T01:36:31.610Z,39.47
2022-11-28T01:39:01.066Z,40.17
2022-11-28T01:41:29.894Z,41.42
2022-11-28T01:44:10.316Z,42.25
2022-11-28T01:46:38.448Z,42.05
2022-11-28T01:49:14.875Z,43.42
2022-11-28T01:51:47.314Z,44.50
2022-11-28T01:54:19.806Z,44.50
2022-11-28T01:56:52.251Z,48.08
2022-11-28T01:59:22.897Z,42.08
2022-11-28T02:01:51.062Z,45.95
2022-11-28T02:04:19.722Z,45.65
2022-11-28T02:06:47.768Z,40.42
2022-11-28T02:09:17.985Z,41.60
2022-11-28T02:12:08.263Z,37.33
2022-11-28T02:15:02.234Z,35.72
2022-11-28T02:17:45.335Z,41.28
2022-11-28T02:20:37.229Z,42.95
2022-11-28T02:23:16.227Z,47.22
2022-11-28T02:26:11.910Z,43.13
2022-11-28T02:29:08.633Z,45.50
2022-11-28T02:32:06.763Z,42.10
2022-11-28T02:34:47.121Z,47.78
2022-11-28T02:37:25.084Z,47.78
2022-11-28T02:40:02.116Z,46.88
2022-11-28T02:42:37.969Z,45.30
2022-11-28T02:45:11.523Z,48.70
2022-11-28T02:47:46.464Z,37.83
2022-11-28T02:50:20.173Z,44.15
2022-11-28T02:52:52.099Z,41.60
2022-11-28T02:55:20.742Z,41.50
2022-11-28T02:57:51.169Z,45.55
2022-11-28T03:00:26.530Z,45.17
2022-11-28T03:03:07.433Z,45.33
2022-11-28T03:05:44.303Z,47.92
2022-11-28T03:08:25.380Z,46.50
2022-11-28T03:11:00.818Z,44.97
2022-11-28T03:13:40.114Z,40.40
2022-11-28T03:16:19.061Z,41.92
2022-11-28T03:19:00.492Z,37.00
2022-11-28T03:21:37.396Z,39.22
2022-11-28T03:24:11.604Z,35.28
2022-11-28T03:26:47.724Z,36.85
2022-11-28T03:29:21.369Z,38.28
2022-11-28T03:31:55.047Z,39.10
2022-11-28T03:34:28.562Z,39.37
2022-11-28T03:37:02.691Z,38.03
2022-11-28T03:39:36.959Z,38.97
2022-11-28T03:42:11.564Z,30.60
2022-11-28T03:44:45.026Z,31.27
2022-11-28T03:47:13.241Z,36.23
2022-11-28T03:49:46.907Z,37.78
2022-11-28T03:52:20.756Z,41.43
2022-11-28T03:54:55.364Z,42.72
2022-11-28T03:59:55.875Z,38.08
2022-11-28T04:02:32.044Z,38.08
2022-11-28T04:05:07.137Z,39.00
2022-11-28T04:07:41.280Z,45.55
2022-11-28T04:10:16.877Z,49.92
2022-11-28T04:12:56.227Z,47.25
2022-11-28T04:15:31.862Z,50.55
2022-11-28T04:18:07.411Z,50.22
2022-11-28T04:20:40.068Z,49.35
2022-11-28T04:23:13.163Z,45.45
2022-11-28T04:25:47.246Z,49.45
2022-11-28T04:28:20.715Z,49.80
2022-11-28T04:30:51.801Z,35.67
2022-11-28T04:33:23.364Z,48.35
2022-11-28T04:35:54.914Z,48.03
2022-11-28T04:38:25.677Z,49.63
2022-11-28T04:41:06.187Z,47.13
2022-11-28T04:43:36.851Z,46.90
2022-11-28T04:46:10.225Z,44.28
2022-11-28T04:48:38.593Z,46.85
2022-11-28T04:51:17.776Z,48.35
2022-11-28T04:53:51.272Z,46.92
2022-11-28T04:56:25.386Z,44.53
2022-11-28T04:58:53.436Z,50.13
2022-11-28T05:01:27.008Z,45.38
2022-11-28T05:03:56.019Z,48.27
2022-11-28T05:06:28.605Z,49.65
2022-11-28T05:08:56.967Z,47.25
2022-11-28T05:11:25.295Z,47.05
2022-11-28T05:13:53.775Z,48.97
2022-11-28T05:16:22.765Z,47.53
2022-11-28T05:18:50.923Z,44.40
2022-11-28T05:21:19.070Z,45.67
2022-11-28T05:23:49.040Z,50.63
2022-11-28T05:26:18.811Z,43.95
2022-11-28T05:28:48.511Z,43.13
2022-11-28T05:31:16.902Z,44.40
2022-11-28T05:33:44.917Z,41.95
2022-11-28T05:36:15.389Z,47.33
2022-11-28T05:38:44.780Z,47.25
2022-11-28T05:41:21.401Z,44.33
2022-11-28T05:43:49.440Z,44.13
2022-11-28T05:46:18.245Z,42.42
2022-11-28T05:48:46.384Z,43.58
2022-11-28T05:51:14.457Z,41.92
2022-11-28T05:53:42.725Z,37.28
2022-11-28T05:56:12.626Z,56.28
2022-11-28T05:58:42.113Z,39.53
2022-11-28T06:01:12.099Z,41.00
2022-11-28T06:03:40.761Z,41.58
2022-11-28T06:06:16.868Z,34.08
2022-11-28T06:08:45.940Z,42.05
2022-11-28T06:11:15.137Z,37.90
2022-11-28T06:13:46.429Z,32.45
2022-11-28T06:16:19.993Z,31.88
2022-11-28T06:18:48.736Z,41.97
2022-11-28T06:21:16.913Z,42.05
2022-11-28T06:23:45.049Z,47.08
2022-11-28T06:26:15.034Z,44.25
2022-11-28T06:28:44.989Z,40.53
2022-11-28T06:31:14.931Z,37.75
2022-11-28T06:33:43.698Z,33.63
2022-11-28T06:36:15.257Z,34.88
2022-11-28T06:38:43.861Z,31.95
2022-11-28T06:41:13.940Z,69.18
2022-11-28T06:43:42.133Z,36.80
2022-11-28T06:46:16.221Z,35.00
2022-11-28T06:48:45.555Z,36.95
2022-11-28T06:51:14.139Z,36.78
2022-11-28T06:53:42.479Z,38.88
2022-11-28T06:56:13.977Z,36.85
2022-11-28T06:58:42.632Z,37.13
2022-11-28T07:01:15.173Z,34.50
2022-11-28T07:03:43.979Z,36.05
2022-11-28T07:06:12.232Z,35.10
2022-11-28T07:08:41.121Z,35.13
2022-11-28T07:11:11.360Z,37.03
2022-11-28T07:13:39.712Z,37.30
2022-11-28T07:16:09.199Z,42.33
2022-11-28T07:18:38.750Z,40.35
2022-11-28T07:21:07.227Z,43.80
2022-11-28T07:23:38.447Z,51.25
2022-11-28T07:26:08.127Z,42.88
2022-11-28T07:28:36.258Z,42.33
2022-11-28T07:31:06.218Z,40.33
2022-11-28T07:33:35.801Z,38.20
2022-11-28T07:36:08.051Z,41.67
2022-11-28T07:38:36.325Z,40.42
2022-11-28T07:41:05.553Z,44.17
2022-11-28T07:43:33.642Z,39.83
2022-11-28T07:46:04.791Z,41.55
2022-11-28T07:48:33.103Z,41.45
2022-11-28T07:51:01.268Z,43.42
2022-11-28T07:53:30.725Z,41.83
2022-11-28T07:56:02.712Z,38.78
2022-11-28T07:58:30.914Z,36.70
2022-11-28T08:00:59.768Z,36.97
2022-11-28T08:03:27.901Z,34.83
2022-11-28T08:06:02.872Z,36.80
2022-11-28T08:08:32.837Z,33.72
2022-11-28T08:11:02.963Z,33.50
2022-11-28T08:13:31.595Z,29.58
2022-11-28T08:15:59.722Z,32.67
2022-11-28T08:18:27.918Z,31.85
2022-11-28T08:21:05.335Z,37.55
2022-11-28T08:23:37.095Z,31.77
2022-11-28T08:26:07.150Z,56.45
2022-11-28T08:28:35.666Z,53.55
2022-11-28T08:31:11.263Z,38.20
2022-11-28T08:33:40.132Z,31.05
2022-11-28T08:36:09.370Z,25.63
2022-11-28T08:38:40.326Z,33.25
2022-11-28T08:41:11.156Z,34.40
2022-11-28T08:43:39.869Z,35.67
2022-11-28T08:46:10.877Z,40.28
2022-11-28T08:48:41.960Z,36.05
2022-11-28T08:51:14.856Z,29.98
2022-11-28T08:53:48.663Z,35.38
2022-11-28T08:56:19.799Z,35.22
2022-11-28T08:58:48.003Z,33.75
2022-11-28T09:01:17.718Z,37.78
2022-11-28T09:03:48.373Z,37.67
2022-11-28T09:06:18.572Z,40.90
2022-11-28T09:08:48.548Z,34.00
2022-11-28T09:11:21.145Z,31.83
2022-11-28T09:13:49.876Z,27.33
2022-11-28T09:16:18.689Z,26.20
2022-11-28T09:18:46.988Z,24.73
2022-11-28T09:21:16.851Z,22.92
2022-11-28T09:23:48.058Z,21.08
2022-11-28T09:26:18.590Z,21.10
2022-11-28T09:28:47.484Z,20.08
2022-11-28T09:31:18.585Z,18.38
2022-11-28T09:33:48.295Z,20.02
2022-11-28T09:36:18.026Z,19.05
2022-11-28T09:38:46.239Z,19.70
2022-11-28T09:41:49.120Z,19.88
2022-11-28T09:44:22.951Z,15.73
2022-11-28T09:46:54.645Z,14.03
2022-11-28T09:49:40.662Z,14.90
2022-11-28T09:52:27.652Z,15.38
2022-11-28T09:55:04.962Z,13.73
2022-11-28T09:57:38.288Z,14.20
2022-11-28T10:00:12.236Z,16.50
2022-11-28T10:02:47.857Z,14.35
2022-11-28T10:05:25.666Z,15.48
2022-11-28T10:08:06.159Z,18.27
2022-11-28T10:10:41.720Z,16.52
2022-11-28T10:13:17.368Z,17.15
2022-11-28T10:15:56.927Z,25.50
2022-11-28T10:18:36.192Z,17.67
2022-11-28T10:21:09.886Z,16.58
2022-11-28T10:23:44.118Z,8.73
2022-11-28T10:26:22.110Z,16.02
2022-11-28T10:28:54.709Z,15.32
2022-11-28T10:31:32.057Z,16.15
2022-11-28T10:34:07.028Z,17.92
2022-11-28T10:36:47.457Z,14.55
2022-11-28T10:39:16.235Z,46.63
2022-11-28T10:42:11.475Z,20.85
2022-11-28T10:47:24.232Z,40.72
2022-11-28T10:49:58.541Z,13.23
2022-11-28T10:52:36.804Z,15.25
2022-11-28T10:55:23.894Z,15.73
2022-11-28T10:58:01.748Z,16.05
2022-11-28T11:00:31.994Z,15.00
2022-11-28T11:03:03.467Z,16.02
2022-11-28T11:05:33.889Z,11.80
2022-11-28T11:08:06.130Z,13.32
2022-11-28T11:10:40.657Z,13.93
2022-11-28T11:13:16.160Z,18.48
2022-11-28T11:15:48.797Z,15.25
2022-11-28T11:18:25.744Z,12.00
2022-11-28T11:21:08.852Z,14.40
2022-11-28T11:23:38.585Z,13.52
2022-11-28T11:26:10.323Z,13.40
2022-11-28T11:28:44.396Z,17.67
2022-11-28T11:31:27.090Z,13.25
2022-11-28T11:34:04.241Z,20.13
2022-11-28T11:36:34.235Z,16.00
2022-11-28T11:39:17.924Z,15.30
2022-11-28T11:41:47.926Z,17.13
2022-11-28T11:44:34.271Z,14.90
2022-11-28T11:47:06.144Z,17.50
2022-11-28T11:49:37.208Z,14.77
2022-11-28T11:52:07.965Z,16.13
2022-11-28T11:54:38.228Z,14.73
2022-11-28T11:57:31.985Z,14.30
2022-11-28T12:00:05.783Z,12.05
2022-11-28T12:02:47.967Z,13.15
2022-11-28T12:05:20.357Z,15.15
2022-11-28T12:07:58.602Z,15.65
2022-11-28T12:10:30.963Z,14.20
2022-11-28T12:12:59.194Z,19.30
2022-11-28T12:15:41.178Z,16.58
2022-11-28T12:18:22.944Z,16.95
2022-11-28T12:21:13.247Z,20.65
2022-11-28T12:24:09.924Z,20.23
2022-11-28T12:26:46.039Z,18.50
2022-11-28T12:29:37.881Z,29.42
2022-11-28T12:32:30.504Z,28.33
2022-11-28T12:35:30.702Z,22.20
2022-11-28T12:38:11.764Z,30.58
2022-11-28T12:40:55.405Z,27.23
2022-11-28T12:43:46.944Z,31.00
2022-11-28T12:46:23.076Z,14.35
2022-11-28T12:49:09.114Z,21.15
2022-11-28T12:51:56.425Z,29.92
2022-11-28T12:54:55.044Z,23.90
2022-11-28T12:57:33.476Z,18.52
2022-11-28T13:00:09.217Z,17.65
2022-11-28T13:02:49.024Z,17.10
2022-11-28T13:05:32.933Z,13.55
2022-11-28T13:08:36.199Z,12.35
2022-11-28T13:11:16.414Z,19.10
2022-11-28T13:13:52.711Z,18.70
2022-11-28T13:16:47.482Z,19.52
2022-11-28T13:19:33.958Z,30.02
2022-11-28T13:22:09.393Z,22.25
2022-11-28T13:24:44.462Z,22.15
2022-11-28T13:27:24.933Z,20.80
2022-11-28T13:30:10.323Z,19.30
2022-11-28T13:32:46.823Z,16.75
2022-11-28T13:35:17.374Z,17.73
2022-11-28T13:43:19.116Z,17.70
2022-11-28T13:45:50.074Z,15.93
2022-11-28T13:49:15.442Z,18.23
2022-11-28T13:51:47.983Z,20.10
2022-11-28T13:54:48.877Z,16.65
2022-11-28T13:57:25.486Z,17.42
2022-11-28T14:00:03.763Z,15.77
2022-11-28T14:02:50.833Z,17.30
2022-11-28T14:05:30.100Z,17.70
2022-11-28T14:07:59.205Z,20.80
2022-11-28T14:10:51.046Z,28.35
2022-11-28T14:13:46.179Z,25.30
2022-11-28T14:16:25.968Z,24.27
2022-11-28T14:19:12.052Z,53.33
2022-11-28T14:21:53.472Z,75.10
2022-11-28T14:24:34.979Z,71.38
2022-11-28T14:27:06.435Z,40.17
2022-11-28T14:29:40.425Z,35.25
2022-11-28T14:32:31.019Z,33.05
2022-11-28T14:35:01.783Z,30.73
2022-11-28T14:37:48.896Z,36.60
2022-11-28T14:41:06.543Z,35.47
2022-11-28T14:43:37.555Z,50.08
2022-11-28T14:46:35.134Z,50.25
2022-11-28T14:49:23.426Z,53.42
2022-11-28T14:52:42.888Z,61.05
2022-11-28T14:55:58.821Z,71.75
2022-11-28T14:58:27.224Z,45.40
2022-11-28T15:00:59.957Z,30.48
2022-11-28T15:03:40.218Z,24.55
2022-11-28T15:06:13.917Z,32.03
2022-11-28T15:09:17.141Z,31.60
2022-11-28T15:12:20.160Z,23.63
2022-11-28T15:15:19.149Z,37.50
2022-11-28T15:17:54.709Z,25.20
2022-11-28T15:20:30.875Z,31.48
2022-11-28T15:23:01.075Z,29.33
2022-11-28T15:25:35.601Z,25.27
2022-11-28T15:28:23.784Z,26.90
2022-11-28T15:30:54.099Z,29.98
2022-11-28T15:33:24.226Z,38.20
2022-11-28T15:36:01.224Z,39.25
2022-11-28T15:38:32.357Z,40.85
2022-11-28T15:41:01.946Z,38.63
2022-11-28T15:43:32.435Z,39.45
2022-11-28T15:46:03.752Z,41.47
2022-11-28T15:48:39.851Z,37.72
2022-11-28T15:51:28.270Z,45.42
2022-11-28T15:54:00.708Z,61.28
2022-11-28T15:56:40.745Z,45.05
2022-11-28T15:59:14.996Z,58.92
2022-11-28T16:01:43.745Z,51.85
2022-11-28T16:04:16.063Z,58.53
2022-11-28T16:06:51.608Z,50.83
2022-11-28T16:09:35.164Z,43.17
2022-11-28T16:12:11.666Z,46.10
2022-11-28T16:14:45.917Z,45.47
2022-11-28T16:17:24.358Z,35.60
2022-11-28T16:23:49.442Z,33.55
2022-11-28T16:26:25.712Z,42.55
2022-11-28T16:29:01.661Z,54.90
2022-11-28T16:31:30.823Z,38.42
2022-11-28T16:33:59.930Z,36.30
2022-11-28T16:36:35.615Z,42.90
2022-11-28T16:39:20.272Z,47.17
2022-11-28T16:45:48.358Z,40.92
2022-11-28T16:48:21.784Z,47.40
2022-11-28T16:51:24.862Z,44.55
2022-11-28T16:53:55.149Z,39.05
2022-11-28T16:56:27.918Z,39.63
2022-11-28T16:59:12.878Z,39.78
2022-11-28T17:04:25.490Z,47.58
2022-11-28T17:06:55.601Z,36.75
2022-11-28T17:09:27.765Z,45.55
2022-11-28T17:12:08.682Z,43.70
2022-11-28T17:14:39.394Z,60.42
2022-11-28T17:17:14.348Z,44.30
2022-11-28T17:19:42.977Z,44.50
2022-11-28T17:22:15.810Z,36.50
2022-11-28T17:24:44.742Z,36.58
2022-11-28T17:27:15.541Z,35.15
2022-11-28T17:29:51.285Z,34.42
2022-11-28T17:32:21.498Z,35.17
2022-11-28T17:34:55.005Z,40.53
2022-11-28T17:37:24.335Z,43.22
2022-11-28T17:40:11.484Z,45.65
2022-11-28T17:42:49.023Z,44.53
2022-11-28T17:45:20.072Z,42.40
2022-11-28T17:47:50.303Z,46.50
2022-11-28T17:50:21.279Z,33.63
2022-11-28T17:52:52.346Z,33.33
2022-11-28T17:55:20.781Z,40.67
2022-11-28T17:57:56.075Z,32.13
2022-11-28T18:00:31.683Z,33.35
2022-11-28T18:03:01.220Z,31.63
2022-11-28T18:05:38.076Z,33.47
2022-11-28T18:08:17.924Z,33.60
2022-11-28T18:11:03.463Z,34.38
2022-11-28T18:13:36.451Z,34.78
2022-11-28T18:16:12.387Z,37.03
2022-11-28T18:18:45.442Z,36.10
2022-11-28T18:21:14.571Z,41.20
2022-11-28T18:23:47.792Z,38.08
2022-11-28T18:26:30.204Z,43.70
2022-11-28T18:29:04.612Z,43.35
2022-11-28T18:31:35.582Z,41.67
2022-11-28T18:34:21.211Z,38.35
2022-11-28T18:37:02.513Z,32.45
2022-11-28T18:39:36.794Z,34.97
2022-11-28T18:42:08.067Z,37.55
2022-11-28T18:44:38.257Z,33.13
2022-11-28T18:47:10.158Z,45.03
2022-11-28T18:49:38.373Z,44.72
2022-11-28T18:52:06.818Z,41.28
2022-11-28T18:54:35.246Z,42.72
2022-11-28T18:57:04.737Z,30.23
2022-11-28T18:59:33.474Z,66.60
2022-11-28T19:02:02.940Z,50.60
2022-11-28T19:04:32.177Z,56.88
2022-11-28T19:07:01.705Z,44.53
2022-11-28T19:09:31.623Z,47.05
2022-11-28T19:11:59.927Z,52.80
2022-11-28T19:14:29.048Z,55.33
2022-11-28T19:16:57.664Z,48.70
2022-11-28T19:19:27.751Z,45.78
2022-11-28T19:21:57.353Z,43.58
2022-11-28T19:24:26.768Z,41.95
2022-11-28T19:26:56.282Z,43.67
2022-11-28T19:29:26.642Z,47.13
2022-11-28T19:31:55.736Z,43.75
2022-11-28T19:34:26.013Z,43.53
2022-11-28T19:36:57.240Z,86.30
2022-11-28T19:39:28.142Z,53.92
2022-11-28T19:41:57.347Z,54.22
2022-11-28T19:44:29.165Z,51.08
2022-11-28T19:46:57.642Z,51.10
2022-11-28T19:49:26.217Z,49.15
2022-11-28T19:51:56.119Z,44.00
2022-11-28T19:54:24.980Z,43.97
2022-11-28T19:57:01.445Z,60.70
2022-11-28T19:59:39.826Z,49.20
2022-11-28T20:02:08.376Z,53.72
2022-11-28T20:04:39.469Z,48.65
2022-11-28T20:07:09.438Z,49.25
2022-11-28T20:09:38.240Z,53.58
2022-11-28T20:12:07.629Z,51.78
2022-11-28T20:14:36.608Z,48.95
2022-11-28T20:17:06.277Z,53.90
2022-11-28T20:19:41.643Z,55.58
2022-11-28T20:22:15.537Z,56.20
2022-11-28T20:24:49.946Z,54.85
2022-11-28T20:28:27.950Z,46.92
2022-11-28T20:30:59.056Z,64.85
2022-11-28T20:33:30.404Z,53.30
2022-11-28T20:36:10.399Z,32.97
2022-11-28T20:38:41.137Z,38.88
2022-11-28T20:41:34.714Z,40.60
2022-11-28T20:44:03.166Z,37.22
2022-11-28T20:46:49.601Z,35.63
2022-11-28T20:49:18.422Z,32.60
2022-11-28T20:51:47.394Z,31.48
2022-11-28T20:54:17.486Z,33.35
2022-11-28T20:59:36.220Z,33.50
2022-11-28T21:02:05.520Z,29.77
2022-11-28T21:04:35.765Z,30.00
2022-11-28T21:07:05.043Z,32.70
2022-11-28T21:09:34.850Z,62.70
2022-11-28T21:12:03.334Z,31.30
2022-11-28T21:14:33.528Z,31.42
2022-11-28T21:17:01.701Z,28.80
2022-11-28T21:19:29.856Z,29.73
2022-11-28T21:21:58.140Z,26.27
2022-11-28T21:24:26.421Z,25.67
2022-11-28T21:26:56.271Z,25.00
2022-11-28T21:29:25.290Z,43.78
2022-11-28T21:31:53.934Z,31.65
2022-11-28T21:34:22.749Z,27.08
2022-11-28T21:36:51.781Z,23.27
2022-11-28T21:39:22.991Z,24.02
2022-11-28T21:41:52.105Z,29.23
2022-11-28T21:44:22.150Z,32.10
2022-11-28T21:46:50.924Z,23.73
2022-11-28T21:49:19.195Z,24.77
2022-11-28T21:51:47.444Z,24.67
2022-11-28T21:54:15.850Z,22.83
2022-11-28T21:56:46.681Z,23.30
2022-11-28T21:59:15.506Z,22.95
2022-11-28T22:01:45.574Z,25.67
2022-11-28T22:04:14.411Z,24.85
2022-11-28T22:06:54.532Z,28.63
2022-11-28T22:09:23.166Z,24.63
2022-11-28T22:11:51.851Z,23.95
2022-11-28T22:14:20.766Z,24.25
2022-11-28T22:16:50.355Z,22.15
2022-11-28T22:19:19.416Z,19.40
2022-11-28T22:21:52.198Z,20.65
2022-11-28T22:24:24.495Z,32.50
2022-11-28T22:26:53.556Z,22.38
2022-11-28T22:29:21.850Z,23.20
2022-11-28T22:31:52.029Z,21.27
2022-11-28T22:34:20.716Z,21.38
2022-11-28T22:36:49.108Z,15.93
2022-11-28T22:39:17.662Z,13.98
2022-11-28T22:41:46.658Z,18.27
2022-11-28T22:44:15.212Z,19.85
2022-11-28T22:46:43.501Z,16.95
2022-11-28T22:49:13.491Z,18.55
2022-11-28T22:51:42.451Z,20.40
2022-11-28T22:54:13.621Z,18.48
2022-11-28T22:56:43.490Z,18.45
2022-11-28T22:59:13.546Z,22.63
2022-11-28T23:01:43.596Z,20.00
2022-11-28T23:04:13.878Z,19.75
2022-11-28T23:06:42.862Z,20.85
2022-11-28T23:09:14.600Z,22.17
2022-11-28T23:11:42.683Z,22.60
2022-11-28T23:14:13.888Z,23.73
2022-11-28T23:16:44.731Z,26.30
2022-11-28T23:19:16.231Z,23.65
2022-11-28T23:21:47.705Z,23.08
2022-11-28T23:24:17.799Z,22.65
2022-11-28T23:26:48.107Z,25.92
2022-11-28T23:29:16.778Z,25.00
2022-11-28T23:31:46.971Z,23.25
2022-11-28T23:34:17.072Z,24.60
2022-11-28T23:36:47.292Z,34.30
2022-11-28T23:39:17.770Z,27.13
2022-11-28T23:41:47.008Z,29.48
2022-11-28T23:44:17.059Z,30.17
2022-11-28T23:46:45.534Z,27.02
2022-11-28T23:49:14.071Z,28.33
2022-11-28T23:51:43.881Z,28.77
2022-11-28T23:54:12.603Z,27.55
2022-11-28T23:56:42.161Z,28.75
2022-11-28T23:59:12.039Z,31.25
